sensor_id;sensor_type;location;lat;lon;timestamp;pressure;altitude;pressure_sealevel;temperature;humidity
11856;BME280;5987;53.140;8.904;2023-04-06T00:00:48;102030.13;;;0.22;100.00
11856;BME280;5987;53.140;8.904;2023-04-06T00:03:52;102022.34;;;0.21;100.00
11856;BME280;5987;53.140;8.904;2023-04-06T00:06:56;102020.78;;;0.26;100.00
11856;BME280;5987;53.140;8.904;2023-04-06T00:10:01;102019.81;;;0.22;100.00
11856;BME280;5987;53.140;8.904;2023-04-06T00:13:05;102015.41;;;0.18;100.00
11856;BME280;5987;53.140;8.904;2023-04-06T00:16:09;102008.53;;;0.19;100.00
11856;BME280;5987;53.140;8.904;2023-04-06T00:19:13;102007.81;;;0.24;100.00
11856;BME280;5987;53.140;8.904;2023-04-06T00:22:17;102003.41;;;0.20;100.00
11856;BME280;5987;53.140;8.904;2023-04-06T00:25:22;102009.16;;;0.10;100.00
11856;BME280;5987;53.140;8.904;2023-04-06T00:28:25;102005.66;;;0.06;100.00
11856;BME280;5987;53.140;8.904;2023-04-06T00:31:30;102005.53;;;0.02;100.00
11856;BME280;5987;53.140;8.904;2023-04-06T00:34:34;102005.59;;;0.05;100.00
11856;BME280;5987;53.140;8.904;2023-04-06T00:37:37;102004.81;;;0.07;100.00
11856;BME280;5987;53.140;8.904;2023-04-06T00:40:43;102007.38;;;0.06;100.00
11856;BME280;5987;53.140;8.904;2023-04-06T00:43:47;102002.91;;;0.00;100.00
11856;BME280;5987;53.140;8.904;2023-04-06T00:46:51;102007.19;;;-0.01;100.00
11856;BME280;5987;53.140;8.904;2023-04-06T00:49:55;101997.53;;;-0.08;100.00
11856;BME280;5987;53.140;8.904;2023-04-06T00:52:59;102000.16;;;-0.06;100.00
11856;BME280;5987;53.140;8.904;2023-04-06T00:56:04;101992.41;;;-0.06;100.00
11856;BME280;5987;53.140;8.904;2023-04-06T00:59:08;101993.38;;;-0.03;100.00
11856;BME280;5987;53.140;8.904;2023-04-06T01:02:12;101989.91;;;-0.03;100.00
11856;BME280;5987;53.140;8.904;2023-04-06T01:05:16;101985.50;;;-0.07;100.00
11856;BME280;5987;53.140;8.904;2023-04-06T01:08:20;101985.34;;;-0.13;100.00
11856;BME280;5987;53.140;8.904;2023-04-06T01:11:25;101980.13;;;-0.16;100.00
11856;BME280;5987;53.140;8.904;2023-04-06T01:14:29;101984.47;;;-0.15;100.00
11856;BME280;5987;53.140;8.904;2023-04-06T01:17:33;101978.34;;;-0.18;100.00
11856;BME280;5987;53.140;8.904;2023-04-06T01:20:37;101975.09;;;-0.10;100.00
11856;BME280;5987;53.140;8.904;2023-04-06T01:23:43;101970.66;;;-0.16;100.00
11856;BME280;5987;53.140;8.904;2023-04-06T01:26:48;101976.53;;;-0.22;100.00
11856;BME280;5987;53.140;8.904;2023-04-06T01:29:51;101975.66;;;-0.22;100.00
11856;BME280;5987;53.140;8.904;2023-04-06T01:32:55;101969.81;;;-0.15;100.00
11856;BME280;5987;53.140;8.904;2023-04-06T01:35:59;101967.88;;;-0.24;100.00
11856;BME280;5987;53.140;8.904;2023-04-06T01:39:04;101969.50;;;-0.27;100.00
11856;BME280;5987;53.140;8.904;2023-04-06T01:42:08;101960.97;;;-0.25;100.00
11856;BME280;5987;53.140;8.904;2023-04-06T01:45:12;101964.31;;;-0.29;100.00
11856;BME280;5987;53.140;8.904;2023-04-06T01:48:16;101960.81;;;-0.31;100.00
11856;BME280;5987;53.140;8.904;2023-04-06T01:51:19;101956.59;;;-0.27;100.00
11856;BME280;5987;53.140;8.904;2023-04-06T01:54:24;101956.63;;;-0.26;100.00
11856;BME280;5987;53.140;8.904;2023-04-06T01:57:28;101955.84;;;-0.23;100.00
11856;BME280;5987;53.140;8.904;2023-04-06T02:00:31;101953.41;;;-0.17;100.00
11856;BME280;5987;53.140;8.904;2023-04-06T02:03:35;101948.22;;;-0.19;100.00
11856;BME280;5987;53.140;8.904;2023-04-06T02:06:39;101940.56;;;-0.15;100.00
11856;BME280;5987;53.140;8.904;2023-04-06T02:09:44;101941.53;;;-0.10;100.00
11856;BME280;5987;53.140;8.904;2023-04-06T02:12:47;101938.06;;;-0.12;100.00
11856;BME280;5987;53.140;8.904;2023-04-06T02:15:51;101934.44;;;-0.19;100.00
11856;BME280;5987;53.140;8.904;2023-04-06T02:18:54;101931.81;;;-0.21;100.00
11856;BME280;5987;53.140;8.904;2023-04-06T02:21:58;101927.56;;;-0.19;100.00
11856;BME280;5987;53.140;8.904;2023-04-06T02:25:04;101937.00;;;-0.21;100.00
11856;BME280;5987;53.140;8.904;2023-04-06T02:28:08;101930.88;;;-0.24;100.00
11856;BME280;5987;53.140;8.904;2023-04-06T02:31:11;101933.34;;;-0.29;100.00
11856;BME280;5987;53.140;8.904;2023-04-06T02:34:17;101927.31;;;-0.29;100.00
11856;BME280;5987;53.140;8.904;2023-04-06T02:37:20;101935.03;;;-0.31;100.00
11856;BME280;5987;53.140;8.904;2023-04-06T02:40:26;101925.53;;;-0.32;100.00
11856;BME280;5987;53.140;8.904;2023-04-06T02:43:31;101926.34;;;-0.33;100.00
11856;BME280;5987;53.140;8.904;2023-04-06T02:46:34;101926.47;;;-0.28;100.00
11856;BME280;5987;53.140;8.904;2023-04-06T02:49:38;101921.25;;;-0.30;100.00
11856;BME280;5987;53.140;8.904;2023-04-06T02:52:42;101919.41;;;-0.36;100.00
11856;BME280;5987;53.140;8.904;2023-04-06T02:55:47;101919.13;;;-0.46;100.00
11856;BME280;5987;53.140;8.904;2023-04-06T02:58:50;101920.88;;;-0.45;100.00
11856;BME280;5987;53.140;8.904;2023-04-06T03:01:54;101911.97;;;-0.57;100.00
11856;BME280;5987;53.140;8.904;2023-04-06T03:04:58;101905.78;;;-0.63;100.00
11856;BME280;5987;53.140;8.904;2023-04-06T03:08:01;101913.56;;;-0.62;100.00
11856;BME280;5987;53.140;8.904;2023-04-06T03:11:06;101910.06;;;-0.64;100.00
11856;BME280;5987;53.140;8.904;2023-04-06T03:14:11;101911.75;;;-0.66;100.00
11856;BME280;5987;53.140;8.904;2023-04-06T03:17:15;101909.94;;;-0.68;100.00
11856;BME280;5987;53.140;8.904;2023-04-06T03:20:18;101911.47;;;-0.75;100.00
11856;BME280;5987;53.140;8.904;2023-04-06T03:23:22;101911.47;;;-0.75;100.00
11856;BME280;5987;53.140;8.904;2023-04-06T03:26:27;101908.13;;;-0.73;100.00
11856;BME280;5987;53.140;8.904;2023-04-06T03:29:30;101902.00;;;-0.76;100.00
11856;BME280;5987;53.140;8.904;2023-04-06T03:32:34;101905.47;;;-0.76;100.00
11856;BME280;5987;53.140;8.904;2023-04-06T03:35:38;101904.56;;;-0.76;100.00
11856;BME280;5987;53.140;8.904;2023-04-06T03:38:41;101914.84;;;-0.78;100.00
11856;BME280;5987;53.140;8.904;2023-04-06T03:41:46;101909.72;;;-0.76;100.00
11856;BME280;5987;53.140;8.904;2023-04-06T03:44:50;101901.31;;;-0.69;100.00
11856;BME280;5987;53.140;8.904;2023-04-06T03:47:54;101905.06;;;-0.58;100.00
11856;BME280;5987;53.140;8.904;2023-04-06T03:50:57;101901.66;;;-0.57;100.00
11856;BME280;5987;53.140;8.904;2023-04-06T03:54:01;101899.91;;;-0.58;100.00
11856;BME280;5987;53.140;8.904;2023-04-06T03:57:06;101893.94;;;-0.55;100.00
11856;BME280;5987;53.140;8.904;2023-04-06T04:00:11;101900.03;;;-0.53;100.00
11856;BME280;5987;53.140;8.904;2023-04-06T04:03:15;101900.72;;;-0.60;100.00
11856;BME280;5987;53.140;8.904;2023-04-06T04:06:19;101903.34;;;-0.59;100.00
11856;BME280;5987;53.140;8.904;2023-04-06T04:09:22;101901.53;;;-0.61;100.00
11856;BME280;5987;53.140;8.904;2023-04-06T04:12:30;101904.88;;;-0.65;100.00
11856;BME280;5987;53.140;8.904;2023-04-06T04:15:34;101907.53;;;-0.62;100.00
11856;BME280;5987;53.140;8.904;2023-04-06T04:18:37;101901.50;;;-0.63;100.00
11856;BME280;5987;53.140;8.904;2023-04-06T04:21:45;101911.91;;;-0.60;100.00
11856;BME280;5987;53.140;8.904;2023-04-06T04:24:50;101909.31;;;-0.60;100.00
11856;BME280;5987;53.140;8.904;2023-04-06T04:27:55;101911.00;;;-0.62;100.00
11856;BME280;5987;53.140;8.904;2023-04-06T04:30:58;101909.25;;;-0.63;100.00
11856;BME280;5987;53.140;8.904;2023-04-06T04:34:02;101906.66;;;-0.63;100.00
11856;BME280;5987;53.140;8.904;2023-04-06T04:37:06;101900.59;;;-0.63;100.00
11856;BME280;5987;53.140;8.904;2023-04-06T04:40:11;101904.84;;;-0.67;100.00
11856;BME280;5987;53.140;8.904;2023-04-06T04:43:16;101901.31;;;-0.69;100.00
11856;BME280;5987;53.140;8.904;2023-04-06T04:46:20;101896.09;;;-0.72;100.00
11856;BME280;5987;53.140;8.904;2023-04-06T04:49:24;101896.00;;;-0.75;100.00
11856;BME280;5987;53.140;8.904;2023-04-06T04:52:27;101904.66;;;-0.73;100.00
11856;BME280;5987;53.140;8.904;2023-04-06T04:55:31;101896.09;;;-0.72;100.00
11856;BME280;5987;53.140;8.904;2023-04-06T04:58:36;101901.16;;;-0.75;100.00
11856;BME280;5987;53.140;8.904;2023-04-06T05:01:40;101900.50;;;-0.68;100.00
11856;BME280;5987;53.140;8.904;2023-04-06T05:04:56;101901.28;;;-0.71;100.00
11856;BME280;5987;53.140;8.904;2023-04-06T05:08:00;101894.50;;;-0.67;100.00
11856;BME280;5987;53.140;8.904;2023-04-06T05:11:04;101900.41;;;-0.71;100.00
11856;BME280;5987;53.140;8.904;2023-04-06T05:14:09;101897.09;;;-0.67;100.00
11856;BME280;5987;53.140;8.904;2023-04-06T05:17:13;101898.59;;;-0.75;100.00
11856;BME280;5987;53.140;8.904;2023-04-06T05:20:17;101901.16;;;-0.75;100.00
11856;BME280;5987;53.140;8.904;2023-04-06T05:23:21;101901.84;;;-0.82;100.00
11856;BME280;5987;53.140;8.904;2023-04-06T05:26:24;101903.59;;;-0.81;100.00
11856;BME280;5987;53.140;8.904;2023-04-06T05:29:29;101906.16;;;-0.81;100.00
11856;BME280;5987;53.140;8.904;2023-04-06T05:32:34;101893.31;;;-0.80;100.00
11856;BME280;5987;53.140;8.904;2023-04-06T05:35:38;101897.72;;;-0.76;100.00
11856;BME280;5987;53.140;8.904;2023-04-06T05:38:42;101891.19;;;-0.63;100.00
11856;BME280;5987;53.140;8.904;2023-04-06T05:41:46;101893.09;;;-0.56;100.00
11856;BME280;5987;53.140;8.904;2023-04-06T05:44:51;101892.38;;;-0.50;100.00
11856;BME280;5987;53.140;8.904;2023-04-06T05:47:56;101893.34;;;-0.46;100.00
11856;BME280;5987;53.140;8.904;2023-04-06T05:50:59;101892.47;;;-0.45;100.00
11856;BME280;5987;53.140;8.904;2023-04-06T05:54:04;101882.81;;;-0.19;100.00
11856;BME280;5987;53.140;8.904;2023-04-06T05:57:08;101887.25;;;-0.13;100.00
11856;BME280;5987;53.140;8.904;2023-04-06T06:00:15;101892.94;;;0.08;100.00
11856;BME280;5987;53.140;8.904;2023-04-06T06:03:19;101884.41;;;0.12;100.00
11856;BME280;5987;53.140;8.904;2023-04-06T06:06:24;101885.44;;;0.19;100.00
11856;BME280;5987;53.140;8.904;2023-04-06T06:09:29;101894.16;;;0.23;100.00
11856;BME280;5987;53.140;8.904;2023-04-06T06:12:32;101881.75;;;0.47;100.00
11856;BME280;5987;53.140;8.904;2023-04-06T06:15:37;101881.25;;;0.64;100.00
11856;BME280;5987;53.140;8.904;2023-04-06T06:18:41;101881.91;;;0.54;100.00
11856;BME280;5987;53.140;8.904;2023-04-06T06:21:45;101880.66;;;0.77;100.00
11856;BME280;5987;53.140;8.904;2023-04-06T06:24:48;101889.34;;;0.79;100.00
11856;BME280;5987;53.140;8.904;2023-04-06T06:27:52;101895.22;;;0.72;100.00
11856;BME280;5987;53.140;8.904;2023-04-06T06:30:57;101889.06;;;0.67;100.00
11856;BME280;5987;53.140;8.904;2023-04-06T06:34:01;101899.03;;;0.91;100.00
11856;BME280;5987;53.140;8.904;2023-04-06T06:37:06;101892.16;;;0.90;100.00
11856;BME280;5987;53.140;8.904;2023-04-06T06:40:11;101886.56;;;1.14;100.00
11856;BME280;5987;53.140;8.904;2023-04-06T06:43:15;101888.25;;;1.12;100.00
11856;BME280;5987;53.140;8.904;2023-04-06T06:46:21;101885.38;;;1.44;100.00
11856;BME280;5987;53.140;8.904;2023-04-06T06:49:24;101874.63;;;1.71;100.00
11856;BME280;5987;53.140;8.904;2023-04-06T06:52:28;101867.78;;;1.75;100.00
11856;BME280;5987;53.140;8.904;2023-04-06T06:55:31;101867.34;;;2.02;100.00
11856;BME280;5987;53.140;8.904;2023-04-06T06:58:35;101867.69;;;2.24;100.00
11856;BME280;5987;53.140;8.904;2023-04-06T07:01:41;101863.91;;;2.03;100.00
11856;BME280;5987;53.140;8.904;2023-04-06T07:04:47;101866.78;;;2.23;100.00
11856;BME280;5987;53.140;8.904;2023-04-06T07:07:51;101872.84;;;2.22;100.00
11856;BME280;5987;53.140;8.904;2023-04-06T07:10:55;101869.81;;;2.54;100.00
11856;BME280;5987;53.140;8.904;2023-04-06T07:13:59;101863.09;;;2.69;100.00
11856;BME280;5987;53.140;8.904;2023-04-06T07:17:04;101861.72;;;2.99;100.00
11856;BME280;5987;53.140;8.904;2023-04-06T07:20:09;101848.38;;;3.49;100.00
11856;BME280;5987;53.140;8.904;2023-04-06T07:23:13;101846.72;;;3.57;100.00
11856;BME280;5987;53.140;8.904;2023-04-06T07:26:17;101847.69;;;3.69;100.00
11856;BME280;5987;53.140;8.904;2023-04-06T07:29:20;101849.44;;;3.74;100.00
11856;BME280;5987;53.140;8.904;2023-04-06T07:32:26;101839.19;;;3.93;100.00
11856;BME280;5987;53.140;8.904;2023-04-06T07:35:30;101835.94;;;4.29;100.00
11856;BME280;5987;53.140;8.904;2023-04-06T07:38:34;101838.66;;;4.51;100.00
11856;BME280;5987;53.140;8.904;2023-04-06T07:41:37;101835.22;;;4.58;100.00
11856;BME280;5987;53.140;8.904;2023-04-06T07:44:41;101831.84;;;4.95;100.00
11856;BME280;5987;53.140;8.904;2023-04-06T07:47:47;101841.47;;;5.24;100.00
11856;BME280;5987;53.140;8.904;2023-04-06T07:50:51;101835.34;;;4.98;100.00
11856;BME280;5987;53.140;8.904;2023-04-06T07:53:54;101834.50;;;5.10;100.00
11856;BME280;5987;53.140;8.904;2023-04-06T07:56:58;101822.41;;;5.60;100.00
11856;BME280;5987;53.140;8.904;2023-04-06T08:00:02;101818.03;;;5.22;100.00
11856;BME280;5987;53.140;8.904;2023-04-06T08:03:07;101821.53;;;5.52;100.00
11856;BME280;5987;53.140;8.904;2023-04-06T08:06:11;101812.81;;;6.06;100.00
11856;BME280;5987;53.140;8.904;2023-04-06T08:09:15;101816.28;;;5.89;100.00
11856;BME280;5987;53.140;8.904;2023-04-06T08:12:18;101810.88;;;6.63;100.00
11856;BME280;5987;53.140;8.904;2023-04-06T08:15:22;101811.78;;;6.58;100.00
11856;BME280;5987;53.140;8.904;2023-04-06T08:18:27;101805.53;;;6.91;100.00
11856;BME280;5987;53.140;8.904;2023-04-06T08:21:32;101806.59;;;6.55;100.00
11856;BME280;5987;53.140;8.904;2023-04-06T08:24:36;101807.56;;;6.30;100.00
11856;BME280;5987;53.140;8.904;2023-04-06T08:27:40;101805.78;;;6.42;100.00
11856;BME280;5987;53.140;8.904;2023-04-06T08:30:43;101803.16;;;6.45;100.00
11856;BME280;5987;53.140;8.904;2023-04-06T08:33:48;101800.53;;;6.45;100.00
11856;BME280;5987;53.140;8.904;2023-04-06T08:36:52;101788.16;;;6.85;100.00
11856;BME280;5987;53.140;8.904;2023-04-06T08:39:57;101783.66;;;7.09;100.00
11856;BME280;5987;53.140;8.904;2023-04-06T08:43:06;101788.84;;;7.14;100.00
11856;BME280;5987;53.140;8.904;2023-04-06T08:46:14;101788.47;;;7.60;98.16
11856;BME280;5987;53.140;8.904;2023-04-06T08:49:20;101785.91;;;7.51;92.11
11856;BME280;5987;53.140;8.904;2023-04-06T08:52:26;101784.19;;;7.53;95.02
11856;BME280;5987;53.140;8.904;2023-04-06T08:55:31;101777.34;;;7.36;94.15
11856;BME280;5987;53.140;8.904;2023-04-06T08:58:37;101778.13;;;7.46;90.49
11856;BME280;5987;53.140;8.904;2023-04-06T09:01:44;101780.78;;;7.42;91.75
11856;BME280;5987;53.140;8.904;2023-04-06T09:04:53;101780.94;;;7.23;95.61
11856;BME280;5987;53.140;8.904;2023-04-06T09:07:57;101773.56;;;7.70;91.39
11856;BME280;5987;53.140;8.904;2023-04-06T09:11:01;101772.53;;;7.88;100.00
11856;BME280;5987;53.140;8.904;2023-04-06T09:14:05;101769.53;;;8.22;92.12
11856;BME280;5987;53.140;8.904;2023-04-06T09:17:20;101766.47;;;8.57;93.48
11856;BME280;5987;53.140;8.904;2023-04-06T09:20:27;101773.13;;;8.13;87.53
11856;BME280;5987;53.140;8.904;2023-04-06T09:23:31;101768.28;;;8.54;91.63
11856;BME280;5987;53.140;8.904;2023-04-06T09:26:46;101766.44;;;8.61;90.03
11856;BME280;5987;53.140;8.904;2023-04-06T09:29:50;101777.34;;;8.23;83.92
11856;BME280;5987;53.140;8.904;2023-04-06T09:32:56;101757.13;;;8.36;91.28
11856;BME280;5987;53.140;8.904;2023-04-06T09:36:03;101762.63;;;8.15;88.93
11856;BME280;5987;53.140;8.904;2023-04-06T09:39:07;101763.88;;;8.56;83.53
11856;BME280;5987;53.140;8.904;2023-04-06T09:42:23;101761.09;;;8.68;77.48
11856;BME280;5987;53.140;8.904;2023-04-06T09:45:29;101757.63;;;8.68;74.96
11856;BME280;5987;53.140;8.904;2023-04-06T09:48:35;101756.00;;;8.57;81.52
11856;BME280;5987;53.140;8.904;2023-04-06T09:51:45;101757.63;;;8.66;80.75
11856;BME280;5987;53.140;8.904;2023-04-06T09:54:51;101755.78;;;8.74;77.39
11856;BME280;5987;53.140;8.904;2023-04-06T09:58:04;101752.91;;;8.91;82.12
11856;BME280;5987;53.140;8.904;2023-04-06T10:01:12;101760.25;;;9.25;80.59
11856;BME280;5987;53.140;8.904;2023-04-06T10:04:37;101748.34;;;9.06;72.98
11856;BME280;5987;53.140;8.904;2023-04-06T10:07:46;101743.13;;;9.04;73.22
11856;BME280;5987;53.140;8.904;2023-04-06T10:11:02;101741.66;;;9.39;78.47
11856;BME280;5987;53.140;8.904;2023-04-06T10:14:08;101752.66;;;9.10;77.93
11856;BME280;5987;53.140;8.904;2023-04-06T10:17:14;101744.56;;;9.22;84.83
11856;BME280;5987;53.140;8.904;2023-04-06T10:20:25;101745.19;;;9.38;80.85
11856;BME280;5987;53.140;8.904;2023-04-06T10:23:36;101747.72;;;9.43;80.70
11856;BME280;5987;53.140;8.904;2023-04-06T10:26:43;101750.91;;;9.62;82.90
11856;BME280;5987;53.140;8.904;2023-04-06T10:29:48;101752.41;;;9.22;87.27
11856;BME280;5987;53.140;8.904;2023-04-06T10:32:53;101744.84;;;9.57;82.85
11856;BME280;5987;53.140;8.904;2023-04-06T10:35:57;101735.56;;;9.86;82.79
11856;BME280;5987;53.140;8.904;2023-04-06T10:39:04;101741.47;;;9.50;76.89
11856;BME280;5987;53.140;8.904;2023-04-06T10:42:08;101733.13;;;9.78;80.01
11856;BME280;5987;53.140;8.904;2023-04-06T10:45:20;101735.00;;;9.70;75.53
11856;BME280;5987;53.140;8.904;2023-04-06T10:48:25;101729.47;;;9.85;84.98
11856;BME280;5987;53.140;8.904;2023-04-06T10:51:39;101725.44;;;10.11;86.02
11856;BME280;5987;53.140;8.904;2023-04-06T10:54:46;101733.28;;;10.12;84.21
11856;BME280;5987;53.140;8.904;2023-04-06T10:57:52;101724.44;;;10.20;74.22
11856;BME280;5987;53.140;8.904;2023-04-06T11:00:55;101719.03;;;9.82;74.39
11856;BME280;5987;53.140;8.904;2023-04-06T11:03:59;101717.22;;;10.28;75.62
11856;BME280;5987;53.140;8.904;2023-04-06T11:07:03;101718.47;;;10.54;71.02
11856;BME280;5987;53.140;8.904;2023-04-06T11:10:10;101720.25;;;10.52;71.95
11856;BME280;5987;53.140;8.904;2023-04-06T11:13:20;101718.25;;;10.63;67.67
11856;BME280;5987;53.140;8.904;2023-04-06T11:16:26;101719.84;;;10.28;75.49
11856;BME280;5987;53.140;8.904;2023-04-06T11:19:32;101714.38;;;10.40;69.67
11856;BME280;5987;53.140;8.904;2023-04-06T11:22:35;101704.28;;;10.61;70.53
11856;BME280;5987;53.140;8.904;2023-04-06T11:25:51;101710.75;;;10.46;68.96
11856;BME280;5987;53.140;8.904;2023-04-06T11:28:55;101701.41;;;10.73;69.92
11856;BME280;5987;53.140;8.904;2023-04-06T11:32:01;101702.47;;;10.63;72.77
11856;BME280;5987;53.140;8.904;2023-04-06T11:35:06;101695.28;;;10.71;64.98
11856;BME280;5987;53.140;8.904;2023-04-06T11:38:10;101688.81;;;10.49;72.40
11856;BME280;5987;53.140;8.904;2023-04-06T11:41:15;101695.78;;;10.89;62.77
11856;BME280;5987;53.140;8.904;2023-04-06T11:44:31;101683.56;;;10.86;66.86
11856;BME280;5987;53.140;8.904;2023-04-06T11:47:36;101688.66;;;11.28;64.12
11856;BME280;5987;53.140;8.904;2023-04-06T11:50:40;101673.69;;;11.63;67.04
11856;BME280;5987;53.140;8.904;2023-04-06T11:53:44;101682.41;;;11.32;61.61
11856;BME280;5987;53.140;8.904;2023-04-06T11:56:50;101677.22;;;11.29;60.42
11856;BME280;5987;53.140;8.904;2023-04-06T11:59:55;101669.13;;;11.37;55.59
11856;BME280;5987;53.140;8.904;2023-04-06T12:02:58;101662.72;;;11.14;55.70
11856;BME280;5987;53.140;8.904;2023-04-06T12:06:02;101677.06;;;11.67;58.43
11856;BME280;5987;53.140;8.904;2023-04-06T12:09:06;101667.06;;;11.48;55.99
11856;BME280;5987;53.140;8.904;2023-04-06T12:12:11;101663.22;;;11.62;53.50
11856;BME280;5987;53.140;8.904;2023-04-06T12:15:14;101656.69;;;11.75;51.28
11856;BME280;5987;53.140;8.904;2023-04-06T12:18:18;101661.81;;;11.48;50.66
11856;BME280;5987;53.140;8.904;2023-04-06T12:21:22;101654.94;;;11.76;47.97
11856;BME280;5987;53.140;8.904;2023-04-06T12:24:25;101657.34;;;11.83;49.53
11856;BME280;5987;53.140;8.904;2023-04-06T12:27:31;101650.53;;;11.76;46.95
11856;BME280;5987;53.140;8.904;2023-04-06T12:30:35;101654.38;;;11.96;45.72
11856;BME280;5987;53.140;8.904;2023-04-06T12:33:39;101643.66;;;11.71;48.42
11856;BME280;5987;53.140;8.904;2023-04-06T12:36:42;101645.94;;;11.83;47.98
11856;BME280;5987;53.140;8.904;2023-04-06T12:39:46;101642.97;;;11.97;47.68
11856;BME280;5987;53.140;8.904;2023-04-06T12:42:51;101633.19;;;12.29;45.81
11856;BME280;5987;53.140;8.904;2023-04-06T12:45:55;101642.81;;;12.30;44.95
11856;BME280;5987;53.140;8.904;2023-04-06T12:48:58;101634.63;;;12.11;48.23
11856;BME280;5987;53.140;8.904;2023-04-06T12:52:03;101636.88;;;12.51;45.72
11856;BME280;5987;53.140;8.904;2023-04-06T12:55:08;101629.44;;;12.36;45.59
11856;BME280;5987;53.140;8.904;2023-04-06T12:58:13;101637.41;;;12.06;47.41
11856;BME280;5987;53.140;8.904;2023-04-06T13:01:17;101632.38;;;11.98;45.58
11856;BME280;5987;53.140;8.904;2023-04-06T13:04:23;101629.94;;;12.49;46.74
11856;BME280;5987;53.140;8.904;2023-04-06T13:07:26;101624.13;;;12.39;45.12
11856;BME280;5987;53.140;8.904;2023-04-06T13:10:30;101612.56;;;12.43;46.29
11856;BME280;5987;53.140;8.904;2023-04-06T13:13:36;101615.00;;;12.21;46.33
11856;BME280;5987;53.140;8.904;2023-04-06T13:16:40;101613.25;;;12.48;47.78
11856;BME280;5987;53.140;8.904;2023-04-06T13:19:45;101612.84;;;12.34;47.06
11856;BME280;5987;53.140;8.904;2023-04-06T13:22:48;101616.81;;;12.47;48.85
11856;BME280;5987;53.140;8.904;2023-04-06T13:25:58;101609.72;;;12.49;46.79
11856;BME280;5987;53.140;8.904;2023-04-06T13:29:04;101607.81;;;12.81;45.91
11856;BME280;5987;53.140;8.904;2023-04-06T13:32:08;101603.09;;;12.38;42.80
11856;BME280;5987;53.140;8.904;2023-04-06T13:35:13;101595.63;;;12.24;43.10
11856;BME280;5987;53.140;8.904;2023-04-06T13:38:16;101605.34;;;12.22;45.18
11856;BME280;5987;53.140;8.904;2023-04-06T13:41:21;101596.41;;;12.54;46.32
11856;BME280;5987;53.140;8.904;2023-04-06T13:44:28;101594.31;;;12.37;43.96
11856;BME280;5987;53.140;8.904;2023-04-06T13:47:32;101601.59;;;12.29;43.65
11856;BME280;5987;53.140;8.904;2023-04-06T13:50:35;101596.50;;;12.51;44.92
11856;BME280;5987;53.140;8.904;2023-04-06T13:53:40;101596.56;;;12.49;43.49
11856;BME280;5987;53.140;8.904;2023-04-06T13:56:43;101587.03;;;12.72;44.51
11856;BME280;5987;53.140;8.904;2023-04-06T13:59:49;101587.84;;;12.99;43.31
11856;BME280;5987;53.140;8.904;2023-04-06T14:02:54;101585.91;;;12.79;42.70
11856;BME280;5987;53.140;8.904;2023-04-06T14:05:59;101584.91;;;12.57;43.14
11856;BME280;5987;53.140;8.904;2023-04-06T14:09:17;101587.53;;;12.83;42.19
11856;BME280;5987;53.140;8.904;2023-04-06T14:12:20;101584.28;;;12.75;40.79
11856;BME280;5987;53.140;8.904;2023-04-06T14:15:25;101583.13;;;12.57;40.12
11856;BME280;5987;53.140;8.904;2023-04-06T14:18:30;101578.50;;;12.91;42.57
11856;BME280;5987;53.140;8.904;2023-04-06T14:21:33;101581.19;;;13.14;42.84
11856;BME280;5987;53.140;8.904;2023-04-06T14:24:37;101578.81;;;12.81;41.28
11856;BME280;5987;53.140;8.904;2023-04-06T14:27:41;101576.72;;;12.91;43.14
11856;BME280;5987;53.140;8.904;2023-04-06T14:30:46;101565.03;;;13.24;43.19
11856;BME280;5987;53.140;8.904;2023-04-06T14:33:51;101585.72;;;13.11;41.89
11856;BME280;5987;53.140;8.904;2023-04-06T14:36:55;101575.19;;;12.85;42.25
11856;BME280;5987;53.140;8.904;2023-04-06T14:39:58;101569.59;;;12.68;43.31
11856;BME280;5987;53.140;8.904;2023-04-06T14:43:02;101561.59;;;12.71;43.64
11856;BME280;5987;53.140;8.904;2023-04-06T14:46:07;101566.22;;;12.90;45.66
11856;BME280;5987;53.140;8.904;2023-04-06T14:49:11;101559.66;;;13.01;45.65
11856;BME280;5987;53.140;8.904;2023-04-06T14:52:17;101565.31;;;12.91;43.48
11856;BME280;5987;53.140;8.904;2023-04-06T14:55:21;101560.31;;;12.83;42.09
11856;BME280;5987;53.140;8.904;2023-04-06T14:58:25;101560.53;;;13.02;43.48
11856;BME280;5987;53.140;8.904;2023-04-06T15:01:34;101555.41;;;12.97;41.16
11856;BME280;5987;53.140;8.904;2023-04-06T15:04:39;101551.06;;;12.96;43.26
11856;BME280;5987;53.140;8.904;2023-04-06T15:07:48;101554.09;;;12.85;43.38
11856;BME280;5987;53.140;8.904;2023-04-06T15:10:52;101551.53;;;12.82;44.04
11856;BME280;5987;53.140;8.904;2023-04-06T15:13:56;101553.69;;;12.71;42.36
11856;BME280;5987;53.140;8.904;2023-04-06T15:17:01;101548.88;;;12.57;43.41
11856;BME280;5987;53.140;8.904;2023-04-06T15:20:06;101547.19;;;12.81;42.04
11856;BME280;5987;53.140;8.904;2023-04-06T15:23:10;101542.53;;;12.63;42.40
11856;BME280;5987;53.140;8.904;2023-04-06T15:26:14;101548.31;;;12.47;44.64
11856;BME280;5987;53.140;8.904;2023-04-06T15:29:18;101546.09;;;12.62;44.80
11856;BME280;5987;53.140;8.904;2023-04-06T15:32:24;101544.28;;;12.64;43.44
11856;BME280;5987;53.140;8.904;2023-04-06T15:35:28;101540.59;;;12.43;43.49
11856;BME280;5987;53.140;8.904;2023-04-06T15:38:33;101536.19;;;12.43;44.20
11856;BME280;5987;53.140;8.904;2023-04-06T15:41:37;101536.41;;;12.62;41.96
11856;BME280;5987;53.140;8.904;2023-04-06T15:44:41;101540.44;;;12.74;43.69
11856;BME280;5987;53.140;8.904;2023-04-06T15:47:46;101539.44;;;13.02;42.58
11856;BME280;5987;53.140;8.904;2023-04-06T15:50:50;101541.16;;;12.78;42.00
11856;BME280;5987;53.140;8.904;2023-04-06T15:53:54;101531.16;;;12.62;42.63
11856;BME280;5987;53.140;8.904;2023-04-06T15:56:58;101537.06;;;12.69;42.84
11856;BME280;5987;53.140;8.904;2023-04-06T16:00:04;101540.25;;;12.27;44.38
11856;BME280;5987;53.140;8.904;2023-04-06T16:03:09;101534.25;;;12.22;43.26
11856;BME280;5987;53.140;8.904;2023-04-06T16:06:13;101530.09;;;12.14;44.07
11856;BME280;5987;53.140;8.904;2023-04-06T16:09:17;101538.50;;;12.26;43.57
11856;BME280;5987;53.140;8.904;2023-04-06T16:12:22;101532.72;;;12.14;43.77
11856;BME280;5987;53.140;8.904;2023-04-06T16:15:27;101535.56;;;12.08;45.28